Time;durP1;ratioP1;P1;durP2;ratioP2;P2;SDS_P1;SDS_P2;PMS_P1;PMS_P2;Temp;Humidity;BMP_temperature;BMP_pressure;BME280_temperature;BME280_humidity;BME280_pressure;Samples;Min_cycle;Max_cycle;Signal;HPM_P1;HPM_P2
2022/03/21 00:02:19;;;;;;;10.20;5.70;;;;;;;-3.06;59.72;101116.28;104785;1271;72784;-29
2022/03/21 00:04:49;;;;;;;13.30;6.40;;;;;;;-3.11;59.64;101114.89;104900;1271;73779;-29
2022/03/21 00:07:19;;;;;;;13.20;7.10;;;;;;;-3.14;59.58;101111.48;104811;1271;70299;-29
2022/03/21 00:09:53;;;;;;;9.50;6.10;;;;;;;-3.06;59.66;101109.98;104973;1271;61543;-29
2022/03/21 00:12:23;;;;;;;12.30;6.50;;;;;;;-3.01;59.10;101105.09;105039;1271;61187;-29
2022/03/21 00:14:53;;;;;;;11.10;6.80;;;;;;;-2.95;58.61;101101.92;104846;1272;74198;-29
2022/03/21 00:17:42;;;;;;;11.50;6.40;;;;;;;-2.90;58.40;101106.38;104794;1271;74519;-29
2022/03/21 00:20:12;;;;;;;10.20;5.90;;;;;;;-2.85;58.13;101103.17;104722;1273;72931;-29
2022/03/21 00:22:43;;;;;;;15.30;7.20;;;;;;;-2.85;57.89;101099.27;104743;1272;61125;-29
2022/03/21 00:25:13;;;;;;;12.50;5.90;;;;;;;-2.87;57.85;101098.58;104745;1273;62051;-29
2022/03/21 00:27:44;;;;;;;10.80;6.00;;;;;;;-2.88;58.11;101100.27;104798;1273;74087;-29
2022/03/21 00:30:15;;;;;;;12.10;5.80;;;;;;;-2.90;57.88;101098.56;104874;1273;72129;-29
2022/03/21 00:32:46;;;;;;;13.40;6.10;;;;;;;-2.98;58.96;101094.92;104783;1273;71707;-29
2022/03/21 00:35:29;;;;;;;11.50;6.20;;;;;;;-3.09;58.33;101096.38;104736;1273;61142;-29
2022/03/21 00:37:59;;;;;;;8.60;5.50;;;;;;;-3.19;59.50;101092.56;104787;1273;61146;-29
2022/03/21 00:40:29;;;;;;;10.80;6.00;;;;;;;-3.27;60.29;101091.63;104862;1272;75189;-29
2022/03/21 00:43:03;;;;;;;9.30;5.60;;;;;;;-3.34;60.54;101088.70;104776;1271;75519;-29
2022/03/21 00:45:32;;;;;;;10.20;5.80;;;;;;;-3.39;60.10;101087.98;104778;1274;71522;-28
2022/03/21 00:48:02;;;;;;;9.40;5.30;;;;;;;-3.45;61.02;101084.86;104768;1273;61879;-29
2022/03/21 00:50:34;;;;;;;14.10;7.10;;;;;;;-3.47;61.37;101084.67;105090;1271;61128;-29
2022/03/21 00:53:04;;;;;;;14.90;6.40;;;;;;;-3.41;61.25;101083.88;104769;1272;74070;-29
2022/03/21 00:55:34;;;;;;;12.10;6.10;;;;;;;-3.38;60.89;101081.37;104981;1271;74607;-29
2022/03/21 00:58:04;;;;;;;11.80;7.00;;;;;;;-3.34;60.90;101081.57;105132;1271;72646;-29
2022/03/21 01:00:34;;;;;;;17.60;6.50;;;;;;;-3.30;60.68;101081.60;105083;1272;61135;-29
2022/03/21 01:03:04;;;;;;;12.70;6.70;;;;;;;-3.31;60.48;101078.88;104763;1273;61131;-29
2022/03/21 01:05:35;;;;;;;13.30;6.10;;;;;;;-3.31;61.33;101074.96;104834;1271;72662;-29
2022/03/21 01:08:05;;;;;;;13.00;6.80;;;;;;;-3.35;61.34;101073.91;104767;1271;72307;-29
2022/03/21 01:10:36;;;;;;;11.20;6.10;;;;;;;-3.39;60.77;101071.16;104813;1272;72689;-29
2022/03/21 01:13:06;;;;;;;10.10;5.80;;;;;;;-3.41;60.45;101066.89;105108;1271;61068;-29
2022/03/21 01:15:36;;;;;;;10.40;6.30;;;;;;;-3.41;60.86;101063.33;104821;1272;61046;-29
2022/03/21 01:18:12;;;;;;;10.50;5.90;;;;;;;-3.41;61.10;101063.51;104770;1271;76596;-29
2022/03/21 01:20:44;;;;;;;11.30;6.20;;;;;;;-3.42;61.43;101055.51;105027;1272;73226;-29
2022/03/21 01:23:14;;;;;;;11.50;6.50;;;;;;;-3.45;60.93;101052.27;104938;1271;70925;-29
2022/03/21 01:25:44;;;;;;;13.30;6.80;;;;;;;-3.45;61.11;101051.25;104841;1271;61137;-29
2022/03/21 01:28:14;;;;;;;9.60;5.70;;;;;;;-3.42;61.15;101056.19;104819;1271;61076;-29
2022/03/21 01:30:44;;;;;;;11.80;6.40;;;;;;;-3.43;61.44;101055.51;104830;1271;73866;-29
2022/03/21 01:33:14;;;;;;;10.70;6.10;;;;;;;-3.47;61.28;101053.77;104785;1272;74221;-29
2022/03/21 01:35:44;;;;;;;12.90;6.50;;;;;;;-3.51;61.32;101050.16;104885;1271;72868;-29
2022/03/21 01:38:15;;;;;;;14.00;7.50;;;;;;;-3.52;61.86;101049.64;105137;1271;61027;-29
2022/03/21 01:40:45;;;;;;;13.60;7.50;;;;;;;-3.48;62.78;101050.88;104871;1271;61784;-29
2022/03/21 01:43:14;;;;;;;11.90;6.70;;;;;;;-3.49;61.88;101046.63;104757;1273;74758;-29
2022/03/21 01:45:45;;;;;;;11.60;6.60;;;;;;;-3.56;61.25;101040.13;104858;1271;73342;-29
2022/03/21 01:48:15;;;;;;;12.20;6.60;;;;;;;-3.59;61.29;101042.30;104975;1271;73798;-29
2022/03/21 01:50:45;;;;;;;13.40;7.10;;;;;;;-3.63;62.17;101043.11;105069;1271;61141;-29
2022/03/21 01:56:04;;;;;;;15.70;7.80;;;;;;;-3.70;64.32;101045.75;105118;1274;73808;-29
2022/03/21 01:58:34;;;;;;;13.50;7.10;;;;;;;-3.76;63.89;101050.81;105083;1272;74626;-29
2022/03/21 02:01:03;;;;;;;12.80;6.70;;;;;;;-3.83;62.62;101047.66;104874;1272;72940;-29
2022/03/21 02:03:34;;;;;;;14.50;6.30;;;;;;;-3.86;61.84;101047.64;104807;1271;61155;-29
2022/03/21 02:06:04;;;;;;;12.90;6.50;;;;;;;-3.85;61.69;101049.02;104802;1271;61247;-29
2022/03/21 02:08:34;;;;;;;11.00;6.40;;;;;;;-3.86;62.69;101049.00;104693;1273;76387;-29
2022/03/21 02:11:04;;;;;;;13.30;7.30;;;;;;;-3.91;63.02;101054.55;104746;1273;74394;-29
2022/03/21 02:13:35;;;;;;;12.70;6.70;;;;;;;-3.94;62.35;101056.90;104812;1273;73103;-29
2022/03/21 02:16:05;;;;;;;13.50;7.80;;;;;;;-3.98;62.67;101053.13;104838;1273;60970;-29
2022/03/21 02:18:36;;;;;;;15.70;8.20;;;;;;;-4.04;62.84;101055.27;104858;1271;61058;-30
2022/03/21 02:21:10;;;;;;;12.20;6.70;;;;;;;-4.07;63.47;101054.05;104737;1271;74140;-28
2022/03/21 02:23:43;;;;;;;15.10;6.80;;;;;;;-4.07;63.61;101055.57;104786;1273;73257;-28
2022/03/21 02:26:12;;;;;;;11.70;6.70;;;;;;;-4.06;63.23;101055.75;104867;1271;71632;-30
2022/03/21 02:28:42;;;;;;;15.70;7.10;;;;;;;-4.10;63.39;101053.51;105127;1273;60968;-30
2022/03/21 02:31:13;;;;;;;12.60;7.00;;;;;;;-4.16;63.41;101053.27;104969;1272;61153;-29
2022/03/21 02:33:44;;;;;;;14.00;6.70;;;;;;;-4.24;63.86;101050.45;104893;1271;75072;-29
2022/03/21 02:36:15;;;;;;;10.40;6.80;;;;;;;-4.36;64.02;101053.88;104786;1271;74854;-29
2022/03/21 02:38:45;;;;;;;12.50;7.20;;;;;;;-4.46;64.59;101053.95;104773;1274;72722;-29
2022/03/21 02:41:15;;;;;;;10.20;6.40;;;;;;;-4.51;65.16;101054.20;104707;1271;60952;-29
2022/03/21 02:43:53;;;;;;;10.80;6.80;;;;;;;-4.60;65.26;101049.86;104787;1271;61051;-29
2022/03/21 02:46:22;;;;;;;11.70;5.90;;;;;;;-4.71;65.70;101052.76;104613;1273;72755;-29
2022/03/21 02:48:54;;;;;;;18.00;7.60;;;;;;;-4.81;66.22;101050.59;104801;1271;74600;-29
2022/03/21 02:51:25;;;;;;;16.50;6.80;;;;;;;-4.88;66.28;101049.14;104705;1273;71767;-29
2022/03/21 02:53:55;;;;;;;12.80;6.10;;;;;;;-4.98;66.38;101044.95;104619;1274;61066;-29
2022/03/21 02:56:25;;;;;;;11.70;6.20;;;;;;;-5.06;66.52;101046.52;104833;1271;60956;-29
2022/03/21 02:58:56;;;;;;;12.60;6.60;;;;;;;-5.10;66.86;101045.27;104793;1273;72839;-29
2022/03/21 03:01:26;;;;;;;12.70;6.90;;;;;;;-5.13;66.85;101040.83;104843;1271;75943;-29
2022/03/21 03:03:56;;;;;;;11.50;7.10;;;;;;;-5.16;67.59;101038.92;104814;1271;72903;-29
2022/03/21 03:06:27;;;;;;;14.10;7.60;;;;;;;-5.19;67.99;101041.07;104864;1271;61239;-29
2022/03/21 03:08:56;;;;;;;17.30;8.80;;;;;;;-5.21;68.50;101040.20;105110;1271;61080;-29
2022/03/21 03:11:37;;;;;;;16.00;8.20;;;;;;;-5.20;68.78;101039.52;105092;1273;73798;-29
2022/03/21 03:14:07;;;;;;;12.90;7.70;;;;;;;-5.16;69.67;101044.15;104894;1273;74526;-29
2022/03/21 03:16:37;;;;;;;9.00;5.60;;;;;;;-4.43;69.81;101044.63;104823;1271;72981;-29
2022/03/21 03:19:10;;;;;;;15.10;7.60;;;;;;;-3.21;66.00;101049.55;104860;1271;61137;-28
2022/03/21 03:21:44;;;;;;;14.70;8.60;;;;;;;-2.76;63.98;101047.65;104792;1273;61141;-29
2022/03/21 03:24:14;;;;;;;15.50;8.60;;;;;;;-2.79;63.63;101047.45;104806;1271;72940;-29
2022/03/21 03:26:45;;;;;;;19.20;9.10;;;;;;;-2.98;63.99;101049.73;105161;1271;75869;-29
2022/03/21 03:29:20;;;;;;;12.20;6.40;;;;;;;-3.17;64.69;101050.27;104981;1271;72987;-29
2022/03/21 03:31:50;;;;;;;19.90;8.00;;;;;;;-3.39;66.02;101049.26;104843;1271;61125;-29
2022/03/21 03:34:19;;;;;;;10.50;6.40;;;;;;;-3.52;66.35;101051.17;104823;1271;61044;-28
2022/03/21 03:36:50;;;;;;;14.90;7.30;;;;;;;-3.67;66.17;101052.05;104795;1273;74639;-29
2022/03/21 03:39:20;;;;;;;13.20;6.60;;;;;;;-3.82;66.18;101051.41;104805;1272;74378;-29
2022/03/21 03:41:49;;;;;;;13.60;7.70;;;;;;;-3.94;67.26;101047.57;104801;1271;73391;-31
2022/03/21 03:44:20;;;;;;;13.00;7.20;;;;;;;-4.05;67.45;101047.11;104985;1271;61133;-31
2022/03/21 03:46:49;;;;;;;11.00;6.40;;;;;;;-4.16;66.78;101050.55;104893;1271;61129;-29
2022/03/21 03:49:19;;;;;;;13.60;7.20;;;;;;;-4.28;67.45;101046.34;104911;1271;74935;-29
2022/03/21 03:51:50;;;;;;;14.50;7.40;;;;;;;-4.39;67.53;101047.74;104839;1274;72902;-31
2022/03/21 03:54:19;;;;;;;11.40;6.50;;;;;;;-4.49;68.13;101049.49;104995;1271;71915;-32
2022/03/21 03:56:50;;;;;;;11.90;6.60;;;;;;;-4.58;68.34;101047.84;104675;1274;61054;-30
2022/03/21 03:59:19;;;;;;;10.70;5.80;;;;;;;-4.66;68.71;101048.42;104746;1274;61093;-31
2022/03/21 04:02:04;;;;;;;12.30;6.40;;;;;;;-4.70;69.19;101051.59;104825;1271;74122;-28
2022/03/21 04:04:36;;;;;;;10.70;6.00;;;;;;;-4.77;69.19;101052.84;104918;1271;75633;-30
2022/03/21 04:07:05;;;;;;;10.80;5.90;;;;;;;-4.86;69.70;101049.17;104822;1271;72436;-30
2022/03/21 04:09:37;;;;;;;11.70;6.40;;;;;;;-4.92;69.61;101051.29;104968;1271;61128;-30
2022/03/21 04:12:07;;;;;;;10.30;6.10;;;;;;;-4.97;69.82;101050.02;105042;1271;61053;-28
2022/03/21 04:14:49;;;;;;;12.10;6.30;;;;;;;-5.03;69.92;101051.98;104684;1272;74124;-28
2022/03/21 04:17:19;;;;;;;8.30;5.60;;;;;;;-5.09;70.06;101049.69;104775;1271;74576;-30
2022/03/21 04:19:49;;;;;;;12.30;5.80;;;;;;;-5.13;70.60;101052.34;104927;1271;73020;-30
2022/03/21 04:22:19;;;;;;;10.00;5.80;;;;;;;-5.15;70.99;101053.33;104948;1271;61149;-30
2022/03/21 04:24:49;;;;;;;35.40;7.70;;;;;;;-5.16;70.49;101053.65;104899;1271;61617;-30
2022/03/21 04:27:19;;;;;;;10.50;4.50;;;;;;;-5.14;70.54;101050.63;104998;1271;73802;-28
2022/03/21 04:29:50;;;;;;;8.20;4.80;;;;;;;-4.50;70.61;101050.30;105128;1271;74302;-28
2022/03/21 04:32:19;;;;;;;11.10;5.60;;;;;;;-3.25;67.56;101049.67;104946;1271;73001;-29
2022/03/21 04:34:49;;;;;;;18.70;7.20;;;;;;;-2.60;64.71;101049.77;104958;1271;61023;-29
2022/03/21 04:37:19;;;;;;;15.60;7.40;;;;;;;-2.46;63.51;101056.46;104849;1271;61036;-28
2022/03/21 04:39:49;;;;;;;11.10;5.20;;;;;;;-2.55;63.13;101053.86;104699;1273;74064;-30
2022/03/21 04:42:19;;;;;;;9.60;5.40;;;;;;;-2.65;63.67;101053.30;104792;1273;77146;-28
2022/03/21 04:44:50;;;;;;;11.80;5.50;;;;;;;-2.73;63.60;101054.13;105016;1273;70769;-30
2022/03/21 04:47:21;;;;;;;12.80;6.30;;;;;;;-2.77;63.95;101053.92;104773;1273;61154;-28
2022/03/21 04:49:50;;;;;;;14.50;6.90;;;;;;;-2.81;64.50;101055.26;104656;1273;61174;-30
2022/03/21 04:52:20;;;;;;;9.80;6.50;;;;;;;-2.79;64.21;101057.66;104759;1273;72653;-29
2022/03/21 04:54:51;;;;;;;11.60;7.60;;;;;;;-2.74;64.31;101057.34;104945;1273;74810;-29
2022/03/21 04:57:22;;;;;;;11.80;7.20;;;;;;;-2.65;63.96;101054.67;104752;1273;72679;-29
2022/03/21 04:59:56;;;;;;;14.40;7.40;;;;;;;-2.54;63.89;101055.06;104605;1274;61021;-29
2022/03/21 05:02:25;;;;;;;15.30;7.90;;;;;;;-2.42;63.81;101051.02;104680;1273;62035;-29
2022/03/21 05:04:55;;;;;;;13.30;7.50;;;;;;;-2.29;63.95;101051.43;104750;1273;75288;-29
2022/03/21 05:07:25;;;;;;;12.00;7.20;;;;;;;-2.14;63.36;101055.72;104813;1273;74539;-29
2022/03/21 05:09:55;;;;;;;13.70;7.00;;;;;;;-1.97;63.83;101049.14;105144;1273;73062;-28
2022/03/21 05:12:25;;;;;;;15.20;7.20;;;;;;;-1.79;63.59;101049.86;105026;1273;61148;-29
2022/03/21 05:14:56;;;;;;;11.30;7.40;;;;;;;-1.65;63.77;101053.27;104758;1273;61852;-29
2022/03/21 05:17:29;;;;;;;14.30;7.90;;;;;;;-1.50;63.70;101056.20;104693;1273;74530;-29
2022/03/21 05:19:59;;;;;;;13.20;7.70;;;;;;;-1.48;63.71;101060.78;104633;1273;74806;-29
2022/03/21 05:22:29;;;;;;;20.90;9.50;;;;;;;-1.38;64.09;101062.17;104628;1273;73146;-29
2022/03/21 05:36:12;;;;;;;18.10;8.90;;;;;;;-0.40;65.13;101063.52;104660;1273;72883;-28
2022/03/21 05:38:42;;;;;;;28.10;11.50;;;;;;;-0.41;64.37;101063.84;104849;1273;61764;-29
2022/03/21 05:41:12;;;;;;;16.40;8.40;;;;;;;-0.26;64.39;101065.67;105111;1271;61042;-29
2022/03/21 05:43:41;;;;;;;19.00;10.30;;;;;;;-0.22;63.88;101071.45;104920;1271;72964;-29
2022/03/21 05:46:11;;;;;;;25.90;11.40;;;;;;;-0.20;63.21;101069.58;104925;1271;74630;-29
2022/03/21 05:49:00;;;;;;;16.30;8.30;;;;;;;-0.10;62.65;101067.83;104821;1271;72968;-29
2022/03/21 05:51:33;;;;;;;20.30;10.10;;;;;;;0.03;62.04;101069.45;104892;1270;61019;-29
2022/03/21 05:54:10;;;;;;;16.30;9.60;;;;;;;0.16;61.22;101074.01;104841;1272;61175;-29
2022/03/21 05:56:40;;;;;;;21.10;10.40;;;;;;;0.21;61.32;101076.55;104773;1271;72774;-29
2022/03/21 06:01:58;;;;;;;18.40;8.50;;;;;;;0.08;61.28;101074.55;104918;1271;71582;-29
2022/03/21 06:04:29;;;;;;;22.00;10.50;;;;;;;0.18;61.46;101076.73;104911;1271;61103;-29
2022/03/21 06:06:58;;;;;;;14.90;7.20;;;;;;;0.22;60.97;101075.85;104929;1271;61167;-29
2022/03/21 06:09:40;;;;;;;21.20;10.60;;;;;;;0.37;62.12;101076.79;104924;1271;74046;-29
2022/03/21 06:12:11;;;;;;;16.70;9.50;;;;;;;0.52;61.61;101072.39;104905;1271;73290;-29
2022/03/21 06:14:41;;;;;;;17.60;9.90;;;;;;;0.69;61.20;101077.39;104882;1271;71482;-29
2022/03/21 06:17:11;;;;;;;27.20;11.20;;;;;;;0.79;61.07;101079.89;104748;1274;61182;-29
2022/03/21 06:19:41;;;;;;;23.10;11.80;;;;;;;0.83;60.48;101077.64;104932;1271;61082;-29
2022/03/21 06:22:11;;;;;;;19.30;10.30;;;;;;;0.85;60.40;101082.41;104833;1271;72508;-29
2022/03/21 06:24:40;;;;;;;18.30;9.00;;;;;;;1.04;60.77;101083.09;104893;1271;74420;-29
2022/03/21 06:27:10;;;;;;;22.90;13.50;;;;;;;1.19;60.48;101087.39;105062;1271;72654;-29
2022/03/21 06:29:42;;;;;;;24.00;13.00;;;;;;;1.25;58.07;101081.34;105137;1271;61192;-28
2022/03/21 06:32:13;;;;;;;22.40;11.20;;;;;;;1.37;57.24;101080.88;105130;1271;61110;-29
2022/03/21 06:34:43;;;;;;;26.00;14.30;;;;;;;1.44;56.11;101077.02;105122;1271;74413;-29
2022/03/21 06:37:13;;;;;;;20.20;10.00;;;;;;;1.55;56.71;101071.27;104936;1271;73008;-29
2022/03/21 06:39:43;;;;;;;31.10;13.50;;;;;;;1.70;55.92;101068.86;104874;1271;70758;-29
2022/03/21 06:42:14;;;;;;;22.20;13.30;;;;;;;1.80;56.34;101069.58;104967;1271;61129;-28
2022/03/21 06:44:45;;;;;;;17.30;8.50;;;;;;;2.03;57.20;101068.61;104882;1272;61164;-28
2022/03/21 06:47:15;;;;;;;23.80;12.30;;;;;;;2.27;56.25;101070.15;105132;1274;72691;-28
2022/03/21 06:49:45;;;;;;;29.20;11.90;;;;;;;2.49;54.86;101069.48;104945;1271;75422;-28
2022/03/21 06:52:16;;;;;;;19.10;10.90;;;;;;;2.56;55.30;101072.30;104847;1271;73935;-28
2022/03/21 06:54:50;;;;;;;24.40;12.50;;;;;;;2.79;54.42;101079.45;104576;1274;61123;-28
2022/03/21 06:57:19;;;;;;;19.00;11.20;;;;;;;2.92;54.01;101085.95;105137;1272;61236;-28
2022/03/21 06:59:49;;;;;;;26.00;15.10;;;;;;;3.05;53.57;101085.71;105040;1271;72763;-28
2022/03/21 07:02:19;;;;;;;27.10;15.10;;;;;;;3.19;52.48;101088.91;104820;1271;76095;-29
2022/03/21 07:04:49;;;;;;;26.10;14.40;;;;;;;3.34;53.03;101086.73;104841;1271;74856;-28
2022/03/21 07:07:19;;;;;;;20.40;11.40;;;;;;;3.53;52.43;101093.43;105124;1271;61243;-28
2022/03/21 07:09:49;;;;;;;18.30;8.80;;;;;;;3.76;52.26;101092.79;105143;1271;61675;-28
2022/03/21 07:12:24;;;;;;;23.40;11.60;;;;;;;3.93;52.10;101087.28;105130;1271;74094;-28
2022/03/21 07:14:54;;;;;;;21.10;10.70;;;;;;;4.19;51.60;101088.29;105154;1271;74506;-28
2022/03/21 07:17:24;;;;;;;23.80;12.30;;;;;;;4.36;50.94;101090.83;104865;1271;71587;-28
2022/03/21 07:19:54;;;;;;;21.30;11.90;;;;;;;4.55;50.70;101094.70;104818;1271;60950;-28
2022/03/21 07:30:20;;;;;;;15.10;8.50;;;;;;;5.12;49.19;101093.97;104935;1271;76340;-28
2022/03/21 07:32:50;;;;;;;37.60;12.80;;;;;;;5.41;48.83;101093.39;104799;1271;74489;-28
2022/03/21 07:35:19;;;;;;;23.70;11.80;;;;;;;5.56;47.99;101096.75;104869;1271;61136;-28
2022/03/21 07:37:51;;;;;;;21.80;13.00;;;;;;;5.61;47.56;101097.67;105127;1271;61033;-28
2022/03/21 07:40:20;;;;;;;19.00;10.30;;;;;;;5.71;47.08;101096.02;104957;1272;73988;-27
2022/03/21 07:42:50;;;;;;;16.90;9.70;;;;;;;5.91;47.51;101097.66;104979;1271;75121;-27
2022/03/21 07:48:12;;;;;;;15.80;10.20;;;;;;;5.98;47.13;101093.50;105086;1271;61847;-28
2022/03/21 07:50:41;;;;;;;14.60;7.70;;;;;;;6.20;46.91;101087.19;105154;1271;62082;-27
2022/03/21 07:53:11;;;;;;;21.00;10.00;;;;;;;6.44;46.57;101090.27;104860;1271;75535;-27
2022/03/21 07:55:41;;;;;;;11.80;7.10;;;;;;;6.58;46.36;101090.15;105078;1272;77742;-27
2022/03/21 07:58:11;;;;;;;12.80;6.90;;;;;;;6.69;45.82;101089.28;105122;1274;73442;-27
2022/03/21 08:00:42;;;;;;;19.50;11.00;;;;;;;6.60;45.25;101091.98;104954;1274;61950;-28
2022/03/21 08:03:14;;;;;;;14.20;8.30;;;;;;;6.90;45.28;101093.77;104823;1271;61959;-27
2022/03/21 08:05:45;;;;;;;11.90;6.60;;;;;;;7.16;44.78;101094.47;104799;1273;74661;-27
2022/03/21 08:08:16;;;;;;;29.50;10.80;;;;;;;7.22;43.89;101098.05;104736;1274;75177;-28
2022/03/21 08:10:46;;;;;;;16.20;11.00;;;;;;;7.18;43.76;101098.38;104779;1271;74417;-28
2022/03/21 08:13:35;;;;;;;22.80;11.50;;;;;;;7.37;44.06;101094.09;104779;1274;61810;-28
2022/03/21 08:16:06;;;;;;;20.60;12.50;;;;;;;7.47;43.21;101090.29;105135;1271;62138;-28
2022/03/21 08:18:38;;;;;;;22.10;11.20;;;;;;;7.44;42.79;101087.62;105006;1271;75591;-28
2022/03/21 08:21:11;;;;;;;21.70;12.50;;;;;;;7.76;42.53;101093.38;104734;1271;75970;-28
2022/03/21 08:23:42;;;;;;;18.40;11.40;;;;;;;7.76;42.28;101091.30;104694;1274;73819;-28
2022/03/21 08:26:11;;;;;;;19.20;10.30;;;;;;;7.88;42.03;101087.06;104802;1274;61207;-27
2022/03/21 08:28:45;;;;;;;17.60;10.20;;;;;;;8.08;42.11;101082.34;105099;1274;62390;-28
2022/03/21 08:31:15;;;;;;;13.80;8.10;;;;;;;8.09;41.66;101085.89;105128;1272;74513;-26
2022/03/21 08:34:00;;;;;;;23.60;13.80;;;;;;;7.97;41.69;101082.03;104911;1271;76075;-29
2022/03/21 08:36:31;;;;;;;11.50;6.90;;;;;;;8.09;41.41;101081.05;105009;1271;75061;-28
2022/03/21 08:39:01;;;;;;;15.20;10.10;;;;;;;8.33;41.35;101077.90;104713;1274;61535;-30
2022/03/21 08:41:31;;;;;;;21.70;11.20;;;;;;;8.33;40.74;101079.11;104831;1271;62090;-28
2022/03/21 08:44:01;;;;;;;12.00;7.50;;;;;;;8.56;40.59;101077.17;105107;1271;73411;-28
2022/03/21 08:46:30;;;;;;;18.30;11.10;;;;;;;8.35;40.92;101073.50;104840;1271;74955;-28
2022/03/21 08:52:06;;;;;;;36.20;18.40;;;;;;;8.84;39.78;101073.27;105095;1273;61173;-29
2022/03/21 08:54:36;;;;;;;17.70;11.10;;;;;;;9.05;40.21;101063.73;104766;1271;61149;-27
2022/03/21 08:57:06;;;;;;;31.50;16.10;;;;;;;9.36;39.81;101063.60;104907;1272;76020;-28
2022/03/21 08:59:35;;;;;;;21.30;12.60;;;;;;;9.32;38.93;101060.33;104866;1272;74772;-28
2022/03/21 09:02:08;;;;;;;17.90;10.40;;;;;;;9.39;38.84;101061.02;104777;1271;74277;-28
2022/03/21 09:04:39;;;;;;;12.00;7.20;;;;;;;9.37;39.01;101060.46;104811;1271;61080;-28
2022/03/21 09:07:10;;;;;;;19.00;9.20;;;;;;;9.67;39.06;101059.61;104774;1271;61110;-28
2022/03/21 09:09:40;;;;;;;53.30;36.80;;;;;;;9.66;38.43;101062.80;104816;1274;75581;-28
2022/03/21 09:12:10;;;;;;;142.20;82.50;;;;;;;9.48;37.17;101061.84;104925;1271;76029;-29
2022/03/21 09:14:40;;;;;;;19.10;11.00;;;;;;;9.61;37.30;101063.55;104768;1271;72686;-31
2022/03/21 09:17:10;;;;;;;21.80;12.40;;;;;;;9.75;37.25;101061.02;104855;1271;61063;-29
2022/03/21 09:19:40;;;;;;;13.20;8.60;;;;;;;9.73;38.03;101060.74;105016;1271;61127;-29
2022/03/21 09:22:12;;;;;;;23.60;13.40;;;;;;;9.60;38.05;101054.76;104923;1272;75698;-30
2022/03/21 09:24:41;;;;;;;12.80;7.50;;;;;;;10.21;37.55;101047.92;104943;1271;76021;-29
2022/03/21 09:27:11;;;;;;;15.20;8.30;;;;;;;10.22;37.22;101046.83;104963;1274;73060;-29
2022/03/21 09:29:43;;;;;;;15.10;7.60;;;;;;;10.34;35.82;101046.95;105116;1271;61020;-29
2022/03/21 09:32:15;;;;;;;52.20;38.30;;;;;;;9.93;35.42;101047.87;104933;1271;61179;-28
2022/03/21 09:34:44;;;;;;;11.80;7.30;;;;;;;10.21;35.84;101042.73;104733;1272;75369;-28
2022/03/21 09:37:14;;;;;;;63.60;31.30;;;;;;;10.61;35.87;101041.88;104794;1271;75947;-28
2022/03/21 09:39:44;;;;;;;28.00;15.80;;;;;;;10.91;35.18;101040.71;104680;1274;74489;-28
2022/03/21 09:42:15;;;;;;;170.20;80.40;;;;;;;10.67;35.62;101032.89;104904;1271;61016;-28
2022/03/21 09:44:45;;;;;;;106.30;55.70;;;;;;;10.87;35.47;101034.14;104845;1271;61183;-30
2022/03/21 09:50:04;;;;;;;16.10;12.30;;;;;;;10.63;34.51;101032.74;104925;1271;74996;-30
2022/03/21 09:52:35;;;;;;;11.40;6.10;;;;;;;10.24;34.33;101028.86;104780;1271;74267;-31
2022/03/21 09:55:06;;;;;;;12.30;6.90;;;;;;;10.50;34.55;101028.84;104575;1272;365000;-29
2022/03/21 09:57:36;;;;;;;28.50;20.20;;;;;;;11.15;34.18;101027.13;104832;1271;61993;-28
2022/03/21 10:00:08;;;;;;;27.00;17.50;;;;;;;11.63;33.71;101023.94;104860;1271;75438;-28
2022/03/21 10:02:41;;;;;;;31.90;17.30;;;;;;;11.54;33.74;101024.73;105131;1271;75080;-28
2022/03/21 10:05:50;;;;;;;12.80;8.20;;;;;;;10.94;33.57;101020.55;105001;1271;73213;-28
2022/03/21 10:08:22;;;;;;;27.40;15.70;;;;;;;11.29;33.83;101018.23;104322;1277;61847;-28
2022/03/21 10:11:11;;;;;;;16.30;9.50;;;;;;;11.43;33.04;101014.18;104027;1280;61932;-28
2022/03/21 10:13:43;;;;;;;10.00;5.80;;;;;;;11.55;32.94;101008.70;104220;1280;75630;-28
2022/03/21 10:16:20;;;;;;;28.70;10.90;;;;;;;11.89;33.04;101003.89;104126;1280;76050;-28
2022/03/21 10:18:53;;;;;;;23.20;12.00;;;;;;;11.79;32.08;101003.90;104054;1281;74494;-27
2022/03/21 10:21:27;;;;;;;8.90;5.20;;;;;;;11.86;32.60;101001.94;104055;1280;62028;-27
2022/03/21 10:24:07;;;;;;;10.70;5.10;;;;;;;11.01;33.15;100998.32;104113;1281;61224;-28
2022/03/21 10:26:43;;;;;;;11.40;6.00;;;;;;;11.20;33.04;100999.73;104226;1280;75641;-29
2022/03/21 10:29:18;;;;;;;12.20;6.00;;;;;;;11.59;32.79;100990.91;104135;1277;76064;-29
2022/03/21 10:31:50;;;;;;;13.50;7.00;;;;;;;11.69;33.10;100987.55;104340;1281;74409;-29
2022/03/21 10:34:23;;;;;;;7.80;2.90;;;;;;;11.79;33.45;100987.92;104507;1280;61163;-27
2022/03/21 10:36:59;;;;;;;6.10;2.80;;;;;;;11.96;33.00;100976.89;104310;1277;61225;-28
2022/03/21 10:39:31;;;;;;;11.70;6.30;;;;;;;12.14;33.10;100979.68;104750;1270;73607;-27
2022/03/21 10:42:11;;;;;;;12.10;5.90;;;;;;;11.83;33.31;100976.52;105103;1272;75018;-29
2022/03/21 10:44:41;;;;;;;6.80;2.70;;;;;;;12.01;33.24;100973.47;104974;1271;73587;-27
2022/03/21 10:47:10;;;;;;;15.00;8.20;;;;;;;12.00;33.45;100970.94;104795;1271;62102;-28
2022/03/21 10:49:44;;;;;;;15.60;7.40;;;;;;;11.56;33.77;100969.66;104802;1272;61908;-27
2022/03/21 10:52:21;;;;;;;21.30;8.90;;;;;;;11.54;34.13;100970.84;104855;1271;75578;-27
2022/03/21 10:54:51;;;;;;;10.00;4.70;;;;;;;11.88;34.02;100970.71;104741;1271;76035;-27
2022/03/21 10:57:36;;;;;;;71.40;9.10;;;;;;;11.92;34.30;100968.07;104793;1271;74413;-29
2022/03/21 11:00:23;;;;;;;8.90;3.90;;;;;;;12.31;33.90;100964.10;104796;1271;61907;-28
2022/03/21 11:03:09;;;;;;;16.90;6.20;;;;;;;12.47;33.22;100959.52;105051;1271;62071;-28
2022/03/21 11:05:40;;;;;;;22.80;10.40;;;;;;;12.63;32.92;100953.69;105155;1271;76045;-28
2022/03/21 11:08:29;;;;;;;6.60;3.40;;;;;;;12.81;33.40;100947.40;104881;1271;76256;-28
2022/03/21 11:10:59;;;;;;;8.60;3.60;;;;;;;12.40;33.51;100949.82;104810;1271;72308;-28
2022/03/21 11:13:30;;;;;;;15.90;9.10;;;;;;;12.43;33.64;100945.63;104811;1271;61258;-28
2022/03/21 11:16:18;;;;;;;20.10;11.40;;;;;;;12.34;33.61;100948.08;104771;1271;61199;-28
2022/03/21 11:20:26;;;;;;;19.30;9.40;;;;;;;12.22;33.87;100939.34;101518;1309;600464;-29
2022/03/21 11:22:56;;;;;;;15.00;7.90;;;;;;;12.15;34.51;100934.52;104252;1284;62864;-27
2022/03/21 11:25:39;;;;;;;6.20;4.10;;;;;;;12.12;33.87;100936.98;104338;1284;62859;-29
2022/03/21 11:28:30;;;;;;;17.90;5.10;;;;;;;12.53;33.69;100937.23;104203;1284;72766;-27
2022/03/21 11:31:39;;;;;;;12.60;5.30;;;;;;;12.70;34.24;100936.19;103978;1284;75014;-27
2022/03/21 11:34:24;;;;;;;9.90;4.60;;;;;;;12.11;34.21;100930.07;104021;1283;559111;-27
2022/03/21 11:36:58;;;;;;;10.00;4.90;;;;;;;12.41;34.09;100933.77;104427;1283;61147;-27
2022/03/21 11:39:33;;;;;;;8.90;4.90;;;;;;;12.36;34.64;100926.23;104343;1283;61179;-27
2022/03/21 11:42:07;;;;;;;13.70;5.00;;;;;;;12.69;34.27;100926.02;104317;1283;73941;-27
2022/03/21 11:44:38;;;;;;;12.10;4.60;;;;;;;12.84;34.12;100923.50;104451;1283;75818;-27
2022/03/21 11:47:24;;;;;;;8.90;4.30;;;;;;;12.56;34.55;100925.20;104422;1283;73766;-27
2022/03/21 11:49:54;;;;;;;6.20;3.00;;;;;;;12.52;34.05;100917.41;104354;1283;61256;-27
2022/03/21 11:52:25;;;;;;;11.60;5.30;;;;;;;12.82;33.92;100912.13;104327;1284;61143;-27
2022/03/21 11:54:54;;;;;;;11.20;6.00;;;;;;;12.70;33.97;100916.16;104171;1283;73589;-27
2022/03/21 11:57:27;;;;;;;14.30;5.40;;;;;;;12.46;34.10;100912.89;104090;1283;76033;-27
2022/03/21 11:59:58;;;;;;;15.00;5.40;;;;;;;12.91;33.59;100913.34;103959;1283;74713;-27
2022/03/21 12:02:29;;;;;;;9.20;5.20;;;;;;;12.77;33.38;100908.95;104448;1283;62249;-28
2022/03/21 12:05:02;;;;;;;7.90;4.70;;;;;;;12.94;33.41;100902.01;104447;1283;62039;-29
2022/03/21 12:07:32;;;;;;;9.60;5.80;;;;;;;12.68;34.10;100897.45;104211;1283;74796;-29